Time;durP1;ratioP1;P1;durP2;ratioP2;P2;SDS_P1;SDS_P2;PMS_P1;PMS_P2;Temp;Humidity;BMP_temperature;BMP_pressure;BME280_temperature;BME280_humidity;BME280_pressure;Samples;Min_cycle;Max_cycle;Signal;HPM_P1;HPM_P2
2023/09/22 00:02:00;;;;;;;;;;;;;;;15.64;100.00;99780.59;5271344;28;19920;-75
2023/09/22 00:04:32;;;;;;;;;;;;;;;15.57;100.00;99770.00;5271695;28;19916;-73
2023/09/22 00:07:03;;;;;;;;;;;;;;;15.54;100.00;99768.56;5273063;28;19989;-72
2023/09/22 00:09:34;;;;;;;;;;;;;;;15.50;100.00;99772.56;5272543;28;19967;-74
2023/09/22 00:12:08;;;;;;;;;;;;;;;15.48;100.00;99771.94;5271125;28;20381;-76
2023/09/22 00:14:39;;;;;;;;;;;;;;;15.47;100.00;99786.16;5273227;28;20309;-75
2023/09/22 00:17:10;;;;;;;;;;;;;;;15.46;100.00;99773.16;5274290;28;19920;-75
2023/09/22 00:19:43;;;;;;;;;;;;;;;15.43;100.00;99776.16;5272738;28;20374;-75
2023/09/22 00:22:15;;;;;;;;;;;;;;;15.41;100.00;99778.97;5272631;28;19950;-75
2023/09/22 00:24:46;;;;;;;;;;;;;;;15.39;100.00;99772.25;5269911;28;19924;-75
2023/09/22 00:27:19;;;;;;;;;;;;;;;15.36;100.00;99770.00;5271179;28;21289;-73
2023/09/22 00:29:50;;;;;;;;;;;;;;;15.35;100.00;99786.84;5272112;28;19927;-75
2023/09/22 00:32:22;;;;;;;;;;;;;;;15.29;100.00;99781.28;5271992;28;19921;-75
2023/09/22 00:34:53;;;;;;;;;;;;;;;15.26;100.00;99788.75;5274194;28;20359;-75
2023/09/22 00:37:24;;;;;;;;;;;;;;;15.24;100.00;99785.50;5272657;28;20016;-74
2023/09/22 00:39:56;;;;;;;;;;;;;;;15.22;100.00;99795.41;5272001;28;19916;-73
2023/09/22 00:42:27;;;;;;;;;;;;;;;15.20;100.00;99785.06;5273798;28;20262;-75
2023/09/22 00:44:58;;;;;;;;;;;;;;;15.16;100.00;99785.63;5271192;28;19932;-74
2023/09/22 00:47:30;;;;;;;;;;;;;;;15.14;100.00;99779.69;5273347;28;19920;-75
2023/09/22 00:50:01;;;;;;;;;;;;;;;15.14;100.00;99769.94;5271566;28;19946;-75
2023/09/22 00:52:33;;;;;;;;;;;;;;;15.14;100.00;99769.13;5271094;28;20377;-74
2023/09/22 00:55:05;;;;;;;;;;;;;;;15.08;100.00;99757.53;5272904;28;19921;-74
2023/09/22 00:57:36;;;;;;;;;;;;;;;15.07;100.00;99754.03;5270960;28;19920;-75
2023/09/22 01:00:08;;;;;;;;;;;;;;;15.05;100.00;99765.81;5271105;28;19916;-74
2023/09/22 01:02:40;;;;;;;;;;;;;;;15.05;100.00;99763.16;5273214;28;20491;-75
2023/09/22 01:05:11;;;;;;;;;;;;;;;15.07;100.00;99764.59;5271977;28;19921;-75
2023/09/22 01:07:42;;;;;;;;;;;;;;;15.06;100.00;99784.06;5256381;28;20389;-75
2023/09/22 01:10:14;;;;;;;;;;;;;;;15.05;100.00;99779.00;5272777;28;19920;-75
2023/09/22 01:12:45;;;;;;;;;;;;;;;15.05;100.00;99768.44;5272024;28;19925;-75
2023/09/22 01:15:16;;;;;;;;;;;;;;;15.05;100.00;99760.53;5270439;28;19920;-75
2023/09/22 01:46:07;;;;;;;;;;;;;;;14.96;100.00;99751.88;5281843;28;20332;-74
2023/09/22 01:48:39;;;;;;;;;;;;;;;14.96;100.00;99754.53;5270722;28;19925;-73
2023/09/22 01:51:10;;;;;;;;;;;;;;;14.95;100.00;99757.34;5272152;28;19964;-73
2023/09/22 01:53:42;;;;;;;;;;;;;;;14.97;100.00;99765.91;5272071;28;20408;-73
2023/09/22 01:56:13;;;;;;;;;;;;;;;14.97;100.00;99760.66;5269903;28;20266;-75
2023/09/22 01:58:44;;;;;;;;;;;;;;;14.97;100.00;99752.72;5273773;28;19973;-73
2023/09/22 02:01:15;;;;;;;;;;;;;;;14.95;100.00;99747.63;5272251;28;19921;-74
2023/09/22 02:03:46;;;;;;;;;;;;;;;14.96;100.00;99751.88;5256054;28;19923;-74
2023/09/22 02:06:17;;;;;;;;;;;;;;;14.96;100.00;99756.34;5259802;28;19921;-75
2023/09/22 02:08:49;;;;;;;;;;;;;;;14.97;100.00;99747.47;5270119;28;20458;-73
2023/09/22 02:11:20;;;;;;;;;;;;;;;15.00;100.00;99747.06;5272791;28;19920;-74
2023/09/22 02:13:51;;;;;;;;;;;;;;;14.99;100.00;99748.88;5274119;28;19966;-74
2023/09/22 02:16:22;;;;;;;;;;;;;;;14.99;100.00;99756.81;5275878;28;20281;-75
2023/09/22 02:18:53;;;;;;;;;;;;;;;15.01;100.00;99760.09;5274869;28;19920;-73
2023/09/22 02:21:25;;;;;;;;;;;;;;;15.00;100.00;99757.59;5276178;28;20030;-75
2023/09/22 02:23:56;;;;;;;;;;;;;;;15.01;100.00;99756.63;5258671;28;19959;-73
2023/09/22 02:26:27;;;;;;;;;;;;;;;15.00;100.00;99760.25;5273917;28;20035;-74
2023/09/22 02:28:58;;;;;;;;;;;;;;;14.99;100.00;99764.72;5273115;28;19943;-74
2023/09/22 02:31:30;;;;;;;;;;;;;;;14.99;100.00;99762.06;5276188;28;19934;-75
2023/09/22 02:34:01;;;;;;;;;;;;;;;14.99;100.00;99762.06;5275268;28;20004;-74
2023/09/22 02:36:32;;;;;;;;;;;;;;;15.01;100.00;99749.53;5275053;28;19939;-74
2023/09/22 02:39:03;;;;;;;;;;;;;;;15.02;100.00;99745.06;5274216;28;19923;-74
2023/09/22 02:41:35;;;;;;;;;;;;;;;15.03;100.00;99755.41;5275013;28;20360;-75
2023/09/22 02:44:08;;;;;;;;;;;;;;;15.01;100.00;99756.63;5274639;28;19928;-75
2023/09/22 02:46:39;;;;;;;;;;;;;;;15.00;100.00;99752.34;5273711;28;19924;-74
2023/09/22 02:49:10;;;;;;;;;;;;;;;15.01;100.00;99760.09;5276248;28;20319;-74
2023/09/22 02:51:41;;;;;;;;;;;;;;;15.01;100.00;99756.63;5280901;28;19920;-73
2023/09/22 02:54:13;;;;;;;;;;;;;;;15.00;100.00;99762.88;5276799;28;19917;-74
2023/09/22 02:56:44;;;;;;;;;;;;;;;14.99;100.00;99755.97;5273636;28;20695;-75
2023/09/22 02:59:16;;;;;;;;;;;;;;;15.01;100.00;99754.00;5273793;28;19925;-73
2023/09/22 03:01:47;;;;;;;;;;;;;;;15.04;100.00;99761.53;5275735;28;20265;-74
2023/09/22 03:04:18;;;;;;;;;;;;;;;15.07;100.00;99763.78;5275240;28;20015;-74
2023/09/22 03:06:49;;;;;;;;;;;;;;;15.06;100.00;99759.53;5273357;28;20507;-73
2023/09/22 03:09:21;;;;;;;;;;;;;;;15.04;100.00;99759.72;5274957;28;20010;-74
2023/09/22 03:11:52;;;;;;;;;;;;;;;15.04;100.00;99762.34;5275277;28;20037;-74
2023/09/22 03:14:23;;;;;;;;;;;;;;;15.01;100.00;99764.53;5275506;28;19920;-73
2023/09/22 03:16:54;;;;;;;;;;;;;;;14.97;100.00;99764.09;5274061;28;20015;-75
2023/09/22 03:19:25;;;;;;;;;;;;;;;14.97;100.00;99763.28;5274167;28;19946;-73
2023/09/22 03:21:57;;;;;;;;;;;;;;;14.96;100.00;99766.91;5275459;28;19923;-75
2023/09/22 03:24:29;;;;;;;;;;;;;;;14.94;100.00;99761.81;5272779;28;19917;-73
2023/09/22 03:27:00;;;;;;;;;;;;;;;14.94;100.00;99761.81;5257234;28;19932;-74
2023/09/22 03:29:31;;;;;;;;;;;;;;;14.96;100.00;99761.63;5274225;28;19920;-73
2023/09/22 03:32:03;;;;;;;;;;;;;;;14.95;100.00;99763.44;5274996;28;19942;-73
2023/09/22 03:34:35;;;;;;;;;;;;;;;14.94;100.00;99769.72;5275033;28;20361;-73
2023/09/22 03:37:09;;;;;;;;;;;;;;;14.94;100.00;99763.66;5272407;28;19932;-75
2023/09/22 03:39:40;;;;;;;;;;;;;;;14.96;100.00;99766.91;5275112;28;19917;-74
2023/09/22 03:42:14;;;;;;;;;;;;;;;14.98;100.00;99772.81;5273469;28;19927;-74
2023/09/22 03:44:45;;;;;;;;;;;;;;;14.98;100.00;99773.63;5273166;28;19917;-76
2023/09/22 03:47:16;;;;;;;;;;;;;;;14.98;100.00;99776.28;5254405;28;19931;-73
2023/09/22 03:49:48;;;;;;;;;;;;;;;14.99;100.00;99770.00;5272865;28;20365;-76
2023/09/22 03:52:19;;;;;;;;;;;;;;;14.99;100.00;99766.53;5274547;28;19950;-73
2023/09/22 03:54:50;;;;;;;;;;;;;;;14.97;100.00;99769.38;5272626;28;20024;-74
2023/09/22 03:57:22;;;;;;;;;;;;;;;14.96;100.00;99777.44;5272197;28;19921;-76
2023/09/22 03:59:53;;;;;;;;;;;;;;;14.92;100.00;99777.00;5273922;28;20377;-73
2023/09/22 04:02:27;;;;;;;;;;;;;;;14.94;100.00;99779.47;5272240;28;20277;-74
2023/09/22 04:04:58;;;;;;;;;;;;;;;14.96;100.00;99780.09;5272546;28;19930;-75
2023/09/22 04:07:31;;;;;;;;;;;;;;;14.97;100.00;99779.09;5269885;28;19916;-73
2023/09/22 04:10:03;;;;;;;;;;;;;;;15.01;100.00;99780.38;5271946;28;20262;-74
2023/09/22 04:12:35;;;;;;;;;;;;;;;15.05;100.00;99776.34;5274028;28;19920;-73
2023/09/22 04:15:08;;;;;;;;;;;;;;;15.08;100.00;99773.34;5269706;28;19926;-74
2023/09/22 04:17:39;;;;;;;;;;;;;;;15.09;100.00;99778.44;5268681;28;19960;-77
2023/09/22 04:20:11;;;;;;;;;;;;;;;15.11;100.00;99780.06;5271457;28;19958;-73
2023/09/22 04:22:43;;;;;;;;;;;;;;;15.09;100.00;99782.91;5264701;28;19920;-73
2023/09/22 04:25:19;;;;;;;;;;;;;;;15.06;100.00;99781.44;5271058;28;19928;-74
2023/09/22 04:27:54;;;;;;;;;;;;;;;15.04;100.00;99787.91;5265346;28;19920;-73
2023/09/22 04:30:26;;;;;;;;;;;;;;;15.02;100.00;99793.38;5270618;28;20288;-74
2023/09/22 04:32:57;;;;;;;;;;;;;;;14.98;100.00;99792.09;5272489;28;19929;-73
2023/09/22 04:35:32;;;;;;;;;;;;;;;14.96;100.00;99788.00;5271913;28;19920;-73
2023/09/22 04:38:04;;;;;;;;;;;;;;;14.94;100.00;99798.75;5270176;28;19925;-73
2023/09/22 04:40:38;;;;;;;;;;;;;;;14.93;100.00;99793.66;5272337;28;20527;-73
2023/09/22 04:43:11;;;;;;;;;;;;;;;14.91;100.00;99795.66;5270828;28;19920;-73
2023/09/22 04:45:43;;;;;;;;;;;;;;;14.88;100.00;99782.84;5268491;28;19924;-75
2023/09/22 04:48:16;;;;;;;;;;;;;;;14.85;100.00;99789.31;5272638;28;19925;-73
2023/09/22 04:50:53;;;;;;;;;;;;;;;14.83;100.00;99800.03;5271736;28;19962;-73
2023/09/22 04:53:24;;;;;;;;;;;;;;;14.83;100.00;99797.38;5268800;28;20286;-74
2023/09/22 04:56:03;;;;;;;;;;;;;;;14.82;100.00;99793.13;5270217;28;19928;-73
2023/09/22 04:58:37;;;;;;;;;;;;;;;14.82;100.00;99806.31;5268537;28;19920;-74
2023/09/22 05:01:09;;;;;;;;;;;;;;;14.82;100.00;99798.41;5272176;28;20356;-74
2023/09/22 05:03:40;;;;;;;;;;;;;;;14.84;100.00;99795.56;5277528;28;20019;-73
2023/09/22 05:06:12;;;;;;;;;;;;;;;14.86;100.00;99803.31;5271132;28;19920;-75
2023/09/22 05:08:43;;;;;;;;;;;;;;;14.84;100.00;99804.28;5271579;28;19934;-73
2023/09/22 05:11:14;;;;;;;;;;;;;;;14.83;100.00;99800.03;5272042;28;19921;-73
2023/09/22 05:13:46;;;;;;;;;;;;;;;14.88;100.00;99807.38;5272023;28;19927;-73
2023/09/22 05:16:18;;;;;;;;;;;;;;;14.83;100.00;99815.03;5272666;28;19958;-73
2023/09/22 05:18:50;;;;;;;;;;;;;;;14.85;100.00;99820.94;5273116;28;19951;-74
2023/09/22 05:21:21;;;;;;;;;;;;;;;14.82;100.00;99816.84;5269149;28;20337;-73
2023/09/22 05:23:52;;;;;;;;;;;;;;;14.82;100.00;99823.94;5270008;28;20369;-73
2023/09/22 05:26:23;;;;;;;;;;;;;;;14.80;100.00;99821.47;5268374;28;19928;-73
2023/09/22 05:28:54;;;;;;;;;;;;;;;14.79;100.00;99830.41;5270665;28;19924;-73
2023/09/22 05:31:26;;;;;;;;;;;;;;;14.79;100.00;99830.41;5270808;28;20235;-74
2023/09/22 05:33:57;;;;;;;;;;;;;;;14.78;100.00;99836.69;5273119;28;19935;-75
2023/09/22 05:36:29;;;;;;;;;;;;;;;14.75;100.00;99833.59;5270093;28;19921;-74
2023/09/22 05:39:02;;;;;;;;;;;;;;;14.74;100.00;99832.78;5270195;28;19921;-76
2023/09/22 05:41:33;;;;;;;;;;;;;;;14.76;100.00;99838.66;5265571;28;20013;-72
2023/09/22 05:44:04;;;;;;;;;;;;;;;14.76;100.00;99840.50;5270537;28;19925;-73
2023/09/22 05:46:35;;;;;;;;;;;;;;;14.74;100.00;99853.06;5248924;28;19931;-77
2023/09/22 05:49:06;;;;;;;;;;;;;;;14.74;100.00;99851.22;5271542;28;20038;-74
2023/09/22 05:51:38;;;;;;;;;;;;;;;14.75;100.00;99852.03;5275525;28;19916;-73
2023/09/22 05:54:10;;;;;;;;;;;;;;;14.75;100.00;99839.66;5275743;28;20447;-73
2023/09/22 05:56:41;;;;;;;;;;;;;;;14.75;100.00;99836.22;5272506;28;19921;-75
2023/09/22 05:59:12;;;;;;;;;;;;;;;14.76;100.00;99843.13;5272500;28;19943;-73
2023/09/22 06:01:43;;;;;;;;;;;;;;;14.76;100.00;99862.41;5272829;28;19920;-73
2023/09/22 06:04:14;;;;;;;;;;;;;;;14.78;100.00;99862.22;5275406;28;19920;-72
2023/09/22 06:06:46;;;;;;;;;;;;;;;14.79;100.00;99862.03;5273873;28;20207;-73
2023/09/22 06:09:17;;;;;;;;;;;;;;;14.81;100.00;99869.75;5273899;28;19935;-73
2023/09/22 06:11:49;;;;;;;;;;;;;;;14.78;100.00;99878.88;5274278;28;19937;-72
2023/09/22 06:14:20;;;;;;;;;;;;;;;14.78;100.00;99870.97;5276124;28;20344;-73
2023/09/22 06:16:51;;;;;;;;;;;;;;;14.82;100.00;99868.78;5277146;28;19916;-73
2023/09/22 06:19:22;;;;;;;;;;;;;;;14.82;100.00;99866.13;5274529;28;19922;-75
2023/09/22 06:21:53;;;;;;;;;;;;;;;14.81;100.00;99875.03;5274235;28;19924;-74
2023/09/22 06:24:25;;;;;;;;;;;;;;;14.84;100.00;99872.84;5278141;28;20026;-73
2023/09/22 06:26:56;;;;;;;;;;;;;;;14.86;100.00;99883.22;5274289;28;19925;-72
2023/09/22 06:29:27;;;;;;;;;;;;;;;14.88;100.00;99877.75;5277299;28;20015;-75
2023/09/22 06:31:59;;;;;;;;;;;;;;;14.89;100.00;99888.16;5272061;28;20359;-73
2023/09/22 06:34:31;;;;;;;;;;;;;;;14.91;100.00;99891.41;5275637;28;20011;-75
2023/09/22 06:37:02;;;;;;;;;;;;;;;14.92;100.00;99900.13;5274300;28;19928;-73
2023/09/22 06:39:33;;;;;;;;;;;;;;;14.96;100.00;99896.13;5274110;28;20015;-73
2023/09/22 06:42:04;;;;;;;;;;;;;;;14.96;100.00;99889.03;5276430;28;20377;-72
2023/09/22 06:44:36;;;;;;;;;;;;;;;15.01;100.00;99902.50;5251895;28;19920;-73
2023/09/22 06:47:09;;;;;;;;;;;;;;;15.05;100.00;99900.34;5274732;28;19932;-75
2023/09/22 06:49:40;;;;;;;;;;;;;;;15.08;100.00;99905.25;5276196;28;19970;-72
2023/09/22 06:52:11;;;;;;;;;;;;;;;15.08;100.00;99911.34;5275126;28;19924;-74
2023/09/22 06:54:42;;;;;;;;;;;;;;;15.09;100.00;99910.34;5253591;28;19922;-73
2023/09/22 06:57:14;;;;;;;;;;;;;;;15.13;100.00;99907.34;5275437;28;20328;-75
2023/09/22 06:59:45;;;;;;;;;;;;;;;15.22;100.00;99919.41;5274018;28;19916;-74
2023/09/22 07:02:16;;;;;;;;;;;;;;;15.27;100.00;99915.25;5274894;28;20288;-72
2023/09/22 07:04:48;;;;;;;;;;;;;;;15.31;100.00;99916.53;5276413;28;19959;-73
2023/09/22 07:07:19;;;;;;;;;;;;;;;15.36;100.00;99930.97;5275344;28;19921;-73
2023/09/22 07:09:50;;;;;;;;;;;;;;;15.35;100.00;99926.72;5275066;28;20006;-73
2023/09/22 07:12:21;;;;;;;;;;;;;;;15.41;100.00;99924.13;5257660;28;20289;-73
2023/09/22 07:14:52;;;;;;;;;;;;;;;15.43;100.00;99931.88;5277361;28;19916;-75
2023/09/22 07:17:24;;;;;;;;;;;;;;;15.45;100.00;99921.94;5279279;28;19931;-73
2023/09/22 07:19:55;;;;;;;;;;;;;;;15.47;100.00;99928.69;5257349;28;19970;-76
2023/09/22 07:22:26;;;;;;;;;;;;;;;15.49;100.00;99926.69;5274063;28;19920;-73
2023/09/22 07:24:58;;;;;;;;;;;;;;;15.60;100.00;99925.38;5274344;28;20385;-73
2023/09/22 07:27:29;;;;;;;;;;;;;;;15.66;100.00;99934.44;5274592;28;19916;-73
2023/09/22 07:30:00;;;;;;;;;;;;;;;15.72;100.00;99937.16;5272024;28;19927;-73
2023/09/22 07:32:31;;;;;;;;;;;;;;;15.69;100.00;99937.53;5274547;28;19935;-74
2023/09/22 07:35:04;;;;;;;;;;;;;;;15.80;100.00;99937.03;5275719;28;19916;-73
2023/09/22 07:37:35;;;;;;;;;;;;;;;15.86;100.00;99943.38;5274004;28;19920;-73
2023/09/22 07:40:09;;;;;;;;;;;;;;;15.96;100.00;99943.91;5273887;28;19939;-73
2023/09/22 07:42:41;;;;;;;;;;;;;;;16.07;100.00;99953.16;5273349;28;19916;-74
2023/09/22 07:45:12;;;;;;;;;;;;;;;16.02;100.00;99961.66;5274090;28;20354;-75
2023/09/22 07:47:44;;;;;;;;;;;;;;;16.04;100.00;99957.00;5274826;28;20403;-75
2023/09/22 07:50:15;;;;;;;;;;;;;;;16.13;100.00;99968.25;5274184;28;19916;-74
2023/09/22 07:52:46;;;;;;;;;;;;;;;16.23;100.00;99968.78;5274140;28;19974;-75
2023/09/22 07:55:18;;;;;;;;;;;;;;;16.29;100.00;99969.88;5273011;28;19916;-75
2023/09/22 07:57:50;;;;;;;;;;;;;;;16.26;100.00;99973.69;5274230;28;19921;-74
2023/09/22 08:00:21;;;;;;;;;;;;;;;16.41;100.00;99978.09;5273045;28;20388;-73
2023/09/22 08:02:52;;;;;;;;;;;;;;;16.43;100.00;99973.44;5274271;28;19916;-75
2023/09/22 08:05:24;;;;;;;;;;;;;;;16.43;100.00;99981.38;5272551;28;19916;-76
2023/09/22 08:07:58;;;;;;;;;;;;;;;16.49;100.00;99984.06;5273686;28;20408;-74
2023/09/22 08:10:30;;;;;;;;;;;;;;;16.57;100.00;99992.88;5272584;28;19939;-72
2023/09/22 08:13:02;;;;;;;;;;;;;;;16.65;100.00;100000.69;5271471;28;19929;-75
2023/09/22 08:15:34;;;;;;;;;;;;;;;16.57;100.00;99993.69;5273664;28;20247;-72
2023/09/22 08:18:06;;;;;;;;;;;;;;;16.63;100.00;99998.25;5274105;28;19916;-75
2023/09/22 08:20:37;;;;;;;;;;;;;;;16.74;100.00;100005.69;5272984;28;19927;-72
2023/09/22 08:23:09;;;;;;;;;;;;;;;16.79;100.00;100015.69;5273199;28;19921;-73
2023/09/22 08:25:43;;;;;;;;;;;;;;;16.86;100.00;100003.34;5273356;28;19917;-72
2023/09/22 08:28:14;;;;;;;;;;;;;;;16.89;100.00;99997.66;5272807;28;19930;-72
2023/09/22 08:30:46;;;;;;;;;;;;;;;16.98;100.00;100001.81;5271565;28;19920;-75
2023/09/22 08:33:17;;;;;;;;;;;;;;;17.09;100.00;100003.09;5273584;28;19974;-75
2023/09/22 08:35:48;;;;;;;;;;;;;;;17.03;100.00;100006.50;5252318;28;20476;-75
2023/09/22 08:38:19;;;;;;;;;;;;;;;17.03;100.00;100004.69;5272376;28;19920;-75
2023/09/22 08:40:51;;;;;;;;;;;;;;;17.04;100.00;100002.84;5274114;28;19925;-75
2023/09/22 08:43:23;;;;;;;;;;;;;;;17.09;100.00;100002.28;5271688;28;19952;-75
2023/09/22 08:45:54;;;;;;;;;;;;;;;17.22;100.00;100010.31;5271782;28;19967;-75
2023/09/22 08:48:26;;;;;;;;;;;;;;;17.35;100.00;100012.22;5273664;28;19955;-75
2023/09/22 08:50:57;;;;;;;;;;;;;;;17.36;100.00;100012.03;5273558;28;19920;-73
2023/09/22 08:53:29;;;;;;;;;;;;;;;17.42;100.00;100010.44;5273603;28;19947;-75
2023/09/22 08:56:04;;;;;;;;;;;;;;;17.39;100.00;100009.00;5272253;28;19931;-76
2023/09/22 08:58:35;;;;;;;;;;;;;;;17.45;100.00;100012.69;5272139;28;19927;-75
2023/09/22 09:01:07;;;;;;;;;;;;;;;17.38;100.00;100017.13;5272039;28;19920;-75
2023/09/22 09:03:39;;;;;;;;;;;;;;;17.37;100.00;100016.31;5271197;28;19917;-75
2023/09/22 09:06:14;;;;;;;;;;;;;;;17.42;100.00;100021.00;5270101;28;19924;-76
2023/09/22 09:09:04;;;;;;;;;;;;;;;17.42;100.00;100021.81;5271939;28;19935;-74
2023/09/22 09:11:35;;;;;;;;;;;;;;;17.32;100.00;100023.22;5274257;28;20454;-75
2023/09/22 09:14:28;;;;;;;;;;;;;;;17.41;100.00;100025.50;5272744;28;19924;-72
2023/09/22 09:16:59;;;;;;;;;;;;;;;17.50;100.00;100020.84;5271891;28;19924;-75
2023/09/22 09:19:32;;;;;;;;;;;;;;;17.65;100.00;100028.69;5272666;28;20409;-76
2023/09/22 09:22:09;;;;;;;;;;;;;;;17.93;100.00;100023.34;5275350;28;19962;-75
2023/09/22 09:24:41;;;;;;;;;;;;;;;18.18;100.00;100031.56;5276252;28;19916;-72
2023/09/22 09:27:19;;;;;;;;;;;;;;;18.30;100.00;100032.66;5277271;28;19928;-76
2023/09/22 09:29:50;;;;;;;;;;;;;;;18.44;100.00;100033.47;5278411;28;20053;-75
2023/09/22 09:32:23;;;;;;;;;;;;;;;18.59;100.00;100026.16;5278071;28;20015;-74
2023/09/22 09:34:54;;;;;;;;;;;;;;;18.65;100.00;100028.00;5275215;28;19917;-74
2023/09/22 09:37:26;;;;;;;;;;;;;;;18.63;100.00;100035.34;5277241;28;19925;-73
2023/09/22 09:39:58;;;;;;;;;;;;;;;18.77;100.00;100038.06;5277777;28;19927;-76
2023/09/22 09:42:31;;;;;;;;;;;;;;;18.88;100.00;100037.44;5276646;28;19916;-76
2023/09/22 09:45:03;;;;;;;;;;;;;;;19.06;100.00;100034.19;5274839;28;20301;-76
2023/09/22 09:47:36;;;;;;;;;;;;;;;19.24;100.00;100034.34;5276187;28;19924;-75
2023/09/22 09:50:09;;;;;;;;;;;;;;;19.35;100.00;100036.38;5275826;28;19917;-76
2023/09/22 09:52:48;;;;;;;;;;;;;;;19.50;100.00;100041.44;5276873;28;19920;-76
2023/09/22 09:55:20;;;;;;;;;;;;;;;19.61;100.00;100032.84;5277557;28;19920;-76
2023/09/22 09:57:52;;;;;;;;;;;;;;;19.73;100.00;100037.53;5274855;28;19921;-75
2023/09/22 10:00:26;;;;;;;;;;;;;;;19.89;100.00;100047.72;5278084;28;19946;-75
2023/09/22 10:02:58;;;;;;;;;;;;;;;19.97;98.76;100044.81;5275076;28;20182;-75
2023/09/22 10:05:31;;;;;;;;;;;;;;;20.06;96.79;100040.88;5275755;28;19932;-76
2023/09/22 10:08:06;;;;;;;;;;;;;;;20.10;95.74;100039.44;5276935;28;19924;-76
2023/09/22 10:10:38;;;;;;;;;;;;;;;20.13;93.04;100027.56;5275815;28;19921;-74
2023/09/22 10:13:09;;;;;;;;;;;;;;;20.18;89.11;100030.38;5275483;28;19920;-73
2023/09/22 10:15:59;;;;;;;;;;;;;;;20.33;90.76;100028.25;5275282;28;19974;-75
2023/09/22 10:18:50;;;;;;;;;;;;;;;20.27;79.96;100036.28;5274740;28;19959;-75
2023/09/22 10:21:48;;;;;;;;;;;;;;;20.39;84.66;100027.41;5276227;28;19917;-76
2023/09/22 10:24:20;;;;;;;;;;;;;;;20.56;86.00;100026.91;5273384;28;19932;-73
2023/09/22 10:26:54;;;;;;;;;;;;;;;20.72;84.74;100020.25;5275689;28;19927;-76
2023/09/22 10:29:37;;;;;;;;;;;;;;;20.89;90.13;100016.03;5274053;28;19928;-76
2023/09/22 10:32:26;;;;;;;;;;;;;;;21.02;82.71;100015.06;5276182;28;19920;-76
2023/09/22 10:34:58;;;;;;;;;;;;;;;21.08;82.55;100017.69;5274876;28;19927;-76
2023/09/22 10:37:32;;;;;;;;;;;;;;;21.12;79.33;100015.41;5273767;28;20392;-76
2023/09/22 10:40:16;;;;;;;;;;;;;;;21.20;82.60;100024.97;5272468;28;19920;-76
2023/09/22 10:42:49;;;;;;;;;;;;;;;21.26;79.41;100034.75;5273403;28;19921;-75
2023/09/22 10:45:23;;;;;;;;;;;;;;;21.18;81.93;100022.53;5271240;28;19978;-76
2023/09/22 10:47:57;;;;;;;;;;;;;;;21.12;82.59;100024.19;5270967;28;20062;-76
2023/09/22 10:50:31;;;;;;;;;;;;;;;21.11;83.36;100030.56;5273877;28;19913;-76
2023/09/22 10:53:06;;;;;;;;;;;;;;;20.91;77.43;100032.59;5272466;28;19917;-76
2023/09/22 10:55:39;;;;;;;;;;;;;;;20.68;79.78;100021.72;5274720;28;20003;-76
2023/09/22 10:58:11;;;;;;;;;;;;;;;20.46;78.34;100032.69;5274000;28;19924;-73
2023/09/22 11:01:04;;;;;;;;;;;;;;;20.33;85.85;100030.91;5274423;28;20024;-74
2023/09/22 11:03:35;;;;;;;;;;;;;;;20.21;82.99;100034.47;5270458;28;20423;-76
2023/09/22 11:06:07;;;;;;;;;;;;;;;20.17;85.70;100031.41;5274567;28;19920;-76
2023/09/22 11:08:51;;;;;;;;;;;;;;;20.18;83.80;100025.06;5274660;28;19920;-76
2023/09/22 11:11:22;;;;;;;;;;;;;;;20.23;86.08;100033.25;5271737;28;19989;-74
2023/09/22 11:13:54;;;;;;;;;;;;;;;20.23;86.10;100033.25;5272755;28;19928;-75
2023/09/22 11:16:25;;;;;;;;;;;;;;;20.29;82.60;100034.22;5272994;28;19925;-76
2023/09/22 11:19:08;;;;;;;;;;;;;;;20.29;81.83;100034.22;5249765;28;20294;-76
2023/09/22 11:21:40;;;;;;;;;;;;;;;20.35;85.79;100033.38;5272640;28;19920;-73
2023/09/22 11:24:12;;;;;;;;;;;;;;;20.58;87.09;100040.84;5273616;28;19921;-75
2023/09/22 11:26:43;;;;;;;;;;;;;;;20.79;79.89;100036.97;5272031;28;19928;-74
2023/09/22 11:29:15;;;;;;;;;;;;;;;20.92;75.74;100034.22;5270605;28;19977;-76
2023/09/22 11:31:50;;;;;;;;;;;;;;;20.88;76.03;100041.84;5272496;28;19924;-73
2023/09/22 11:34:22;;;;;;;;;;;;;;;20.80;73.94;100050.09;5270208;28;19927;-74
2023/09/22 11:36:57;;;;;;;;;;;;;;;20.73;72.41;100051.19;5273273;28;19920;-76
2023/09/22 11:39:30;;;;;;;;;;;;;;;20.72;73.62;100041.53;5271278;28;19928;-75
2023/09/22 11:42:02;;;;;;;;;;;;;;;20.67;70.93;100054.69;5272653;28;20452;-76
2023/09/22 11:44:33;;;;;;;;;;;;;;;20.71;73.33;100058.53;5271738;28;19923;-76
2023/09/22 11:47:05;;;;;;;;;;;;;;;20.74;77.54;100050.94;5273070;28;19924;-74
2023/09/22 11:49:36;;;;;;;;;;;;;;;20.81;71.91;100056.22;5272549;28;20396;-73
2023/09/22 11:52:07;;;;;;;;;;;;;;;20.88;72.68;100046.34;5270145;28;19928;-76
2023/09/22 11:54:38;;;;;;;;;;;;;;;21.02;74.70;100042.53;5273729;28;20371;-75
2023/09/22 11:57:10;;;;;;;;;;;;;;;21.25;75.96;100049.91;5273930;28;19920;-73
2023/09/22 11:59:41;;;;;;;;;;;;;;;21.43;66.72;100046.47;5273306;28;20860;-75
2023/09/22 12:02:12;;;;;;;;;;;;;;;21.66;69.31;100050.34;5273495;28;19916;-75
2023/09/22 12:04:43;;;;;;;;;;;;;;;21.68;67.60;100053.63;5273508;28;19916;-74
2023/09/22 12:07:15;;;;;;;;;;;;;;;21.58;69.33;100062.94;5270465;28;20013;-76
2023/09/22 12:09:46;;;;;;;;;;;;;;;21.51;68.40;100056.84;5273535;28;19974;-75
2023/09/22 12:12:17;;;;;;;;;;;;;;;21.38;68.95;100051.66;5273043;28;19917;-76
2023/09/22 12:14:48;;;;;;;;;;;;;;;21.31;71.23;100059.69;5274100;28;20015;-74
2023/09/22 12:17:20;;;;;;;;;;;;;;;21.29;76.18;100052.94;5273019;28;19924;-76
2023/09/22 12:19:51;;;;;;;;;;;;;;;21.25;72.02;100062.41;5273729;28;19924;-76
2023/09/22 12:22:23;;;;;;;;;;;;;;;21.18;72.63;100061.69;5270181;28;19917;-76
2023/09/22 12:24:54;;;;;;;;;;;;;;;21.12;74.45;100056.16;5271726;28;19978;-76
2023/09/22 12:27:25;;;;;;;;;;;;;;;21.18;77.21;100064.34;5271861;28;19925;-76
2023/09/22 12:29:56;;;;;;;;;;;;;;;21.21;73.07;100063.88;5272587;28;20385;-76
2023/09/22 12:32:27;;;;;;;;;;;;;;;21.26;76.97;100053.41;5271407;28;20254;-72
2023/09/22 12:34:59;;;;;;;;;;;;;;;21.30;71.85;100059.91;5270781;28;19993;-74
2023/09/22 12:37:31;;;;;;;;;;;;;;;21.30;72.60;100058.06;5271357;28;20365;-76
2023/09/22 12:40:04;;;;;;;;;;;;;;;21.18;67.98;100057.16;5270604;28;20561;-75
2023/09/22 12:42:37;;;;;;;;;;;;;;;21.26;72.65;100072.03;5270990;28;20307;-73
2023/09/22 12:45:08;;;;;;;;;;;;;;;21.18;70.04;100067.00;5273076;28;19921;-76
2023/09/22 12:47:39;;;;;;;;;;;;;;;21.15;69.67;100068.25;5273204;28;19924;-75
2023/09/22 12:50:11;;;;;;;;;;;;;;;21.12;74.67;100074.81;5271079;28;19927;-76
2023/09/22 12:52:42;;;;;;;;;;;;;;;21.13;74.20;100065.78;5270355;28;19916;-73
2023/09/22 12:55:13;;;;;;;;;;;;;;;21.09;70.68;100066.44;5272424;28;20369;-76
2023/09/22 12:57:44;;;;;;;;;;;;;;;21.09;71.68;100066.44;5271884;28;19920;-74
2023/09/22 13:00:16;;;;;;;;;;;;;;;21.08;76.44;100067.47;5271211;28;19926;-74
2023/09/22 13:02:47;;;;;;;;;;;;;;;21.12;78.04;100058.84;5273462;28;19926;-76
2023/09/22 13:05:18;;;;;;;;;;;;;;;21.15;72.22;100065.59;5270488;28;19973;-75
2023/09/22 13:07:49;;;;;;;;;;;;;;;21.16;75.45;100064.53;5273127;28;19931;-76
2023/09/22 13:10:21;;;;;;;;;;;;;;;21.14;74.06;100074.63;5272182;28;19917;-76
2023/09/22 13:12:53;;;;;;;;;;;;;;;21.08;71.42;100064.81;5270103;28;19931;-72
2023/09/22 13:15:24;;;;;;;;;;;;;;;21.03;69.47;100065.47;5272683;28;20342;-75
2023/09/22 13:17:57;;;;;;;;;;;;;;;21.01;67.92;100072.03;5269465;28;19927;-76
2023/09/22 13:20:32;;;;;;;;;;;;;;;20.99;70.57;100072.28;5270276;28;20071;-75
2023/09/22 13:23:04;;;;;;;;;;;;;;;20.92;68.05;100065.38;5267979;28;20993;-76
2023/09/22 13:25:35;;;;;;;;;;;;;;;20.91;72.71;100069.88;5268671;28;19939;-76
2023/09/22 13:28:07;;;;;;;;;;;;;;;20.92;72.50;100074.16;5268840;28;19921;-74
2023/09/22 13:30:42;;;;;;;;;;;;;;;20.91;70.69;100072.53;5267863;28;19917;-76